Date,TemperatureHighF,TemperatureAvgF,TemperatureLowF,DewpointHighF,DewpointAvgF,DewpointLowF,HumidityHigh,HumidityAvg,HumidityLow,PressureMaxIn,PressureMinIn,WindSpeedMaxMPH,WindSpeedAvgMPH,GustSpeedMaxMPH,PrecipitationSumIn
2013-8-1,78,64,58,64,59,55,94,84,53,30.03,29.84,9,2,11,0.00
2013-8-2,80,68,62,64,59,50,96,77,36,29.86,29.80,7,1,11,0.00
2013-8-3,77,65,59,62,56,49,95,76,38,29.87,29.79,8,1,10,0.00
2013-8-4,73,62,55,61,56,53,93,83,59,29.93,29.82,6,0,8,0.00
2013-8-5,79,60,50,54,48,38,95,72,24,30.04,29.92,8,1,10,0.00
2013-8-6,82,62,51,57,50,46,93,69,29,30.12,30.02,8,2,10,0.00
2013-8-7,84,68,59,60,56,53,88,69,36,30.15,30.05,7,1,11,0.00
2013-8-8,85,72,67,68,64,58,91,75,49,30.06,30.00,6,0,8,0.00
2013-8-9,73,71,70,71,68,66,95,90,78,30.01,29.80,4,0,9,0.00
2013-8-10,80,68,58,68,56,42,95,71,28,30.04,29.85,7,1,9,0.00
2013-8-11,80,63,53,58,52,47,96,70,34,30.09,30.01,6,1,8,0.00
2013-8-12,82,66,54,59,55,50,93,71,33,30.03,29.91,6,0,8,0.00
2013-8-13,66,64,63,64,61,57,94,88,78,29.92,29.70,8,1,8,0.00
2013-8-14,68,59,53,62,55,51,97,88,65,29.95,29.71,6,0,10,0.00
2013-8-15,77,58,49,56,50,47,99,78,36,30.09,29.95,7,1,8,0.00
2013-8-16,80,62,52,58,53,50,96,75,37,30.20,30.07,6,1,8,0.00
2013-8-17,86,65,55,60,54,47,95,74,27,30.30,30.19,8,1,9,0.00
2013-8-18,76,64,58,61,58,55,93,80,55,30.28,30.09,8,2,10,0.00
2013-8-19,87,67,58,61,58,54,95,76,33,30.09,30.00,6,0,8,0.00
2013-8-20,89,69,58,62,59,55,94,74,32,30.13,30.02,6,1,8,0.00
2013-8-21,89,71,61,64,60,56,93,71,33,30.18,30.06,6,0,6,0.00
2013-8-22,87,73,63,65,61,58,90,71,37,30.07,29.86,7,1,10,0.00
2013-8-23,84,65,55,65,57,45,95,77,26,30.16,29.91,7,1,11,0.00
2013-8-24,91,62,51,55,50,43,94,71,20,30.33,30.16,8,1,10,0.00
2013-8-25,84,64,52,58,52,46,94,69,29,30.35,30.16,7,1,10,0.00
2013-8-26,71,65,62,66,62,56,94,89,74,30.18,29.92,0,0,4,0.00
2013-8-27,90,71,66,69,66,63,95,86,43,29.95,29.89,6,0,9,0.00
2013-8-28,97,72,64,69,64,60,96,79,31,29.98,29.89,10,1,17,0.00
2013-8-29,95,70,62,64,61,54,90,76,26,30.08,29.97,8,0,11,0.00
2013-8-30,93,72,65,65,63,58,92,75,31,30.03,29.84,6,0,8,0.00
2013-8-31,74,70,66,72,67,64,95,91,80,29.85,29.79,4,0,7,0.00